Time;durP1;ratioP1;P1;durP2;ratioP2;P2;SDS_P1;SDS_P2;PMS_P1;PMS_P2;Temp;Humidity;BMP_temperature;BMP_pressure;BME280_temperature;BME280_humidity;BME280_pressure;Samples;Min_cycle;Max_cycle;Signal;HPM_P1;HPM_P2
2021/09/21 00:00:38;;;;;;;;;;;8.40;92.00;;;;;;4907120;29;19991;-62
2021/09/21 00:03:04;;;;;;;;;;;8.40;91.80;;;;;;4907282;29;19924;-62
2021/09/21 00:05:29;;;;;;;;;;;8.40;92.00;;;;;;4911684;29;20299;-63
2021/09/21 00:07:55;;;;;;;;;;;8.30;92.00;;;;;;4908311;29;19950;-62
2021/09/21 00:10:20;;;;;;;;;;;8.30;92.00;;;;;;4906116;29;19946;-61
2021/09/21 00:12:46;;;;;;;;;;;8.30;91.90;;;;;;4906330;29;19970;-61
2021/09/21 00:15:13;;;;;;;;;;;8.30;92.20;;;;;;4911315;29;19924;-61
2021/09/21 00:17:39;;;;;;;;;;;8.20;92.10;;;;;;4907518;29;19923;-61
2021/09/21 00:20:05;;;;;;;;;;;8.20;92.10;;;;;;4906957;29;19920;-61
2021/09/21 00:22:31;;;;;;;;;;;8.10;91.90;;;;;;4912256;29;20053;-61
2021/09/21 00:24:56;;;;;;;;;;;8.10;92.10;;;;;;4913372;29;19926;-61
2021/09/21 00:27:22;;;;;;;;;;;8.10;92.20;;;;;;4907021;29;20429;-61
2021/09/21 00:29:47;;;;;;;;;;;8.10;92.20;;;;;;4913276;29;19919;-61
2021/09/21 00:32:16;;;;;;;;;;;8.00;92.10;;;;;;4915319;29;19934;-63
2021/09/21 00:34:44;;;;;;;;;;;8.00;92.30;;;;;;4914285;29;21270;-63
2021/09/21 00:37:10;;;;;;;;;;;8.00;92.30;;;;;;4915210;29;19927;-62
2021/09/21 00:39:36;;;;;;;;;;;8.00;92.40;;;;;;4914969;29;19919;-62
2021/09/21 00:42:02;;;;;;;;;;;8.00;92.30;;;;;;4915552;29;20281;-61
2021/09/21 00:44:28;;;;;;;;;;;8.00;92.40;;;;;;4916327;29;20307;-61
2021/09/21 00:46:53;;;;;;;;;;;8.00;92.60;;;;;;4916276;29;19923;-61
2021/09/21 00:49:19;;;;;;;;;;;8.10;92.80;;;;;;4916851;29;19983;-61
2021/09/21 00:51:45;;;;;;;;;;;8.20;92.90;;;;;;4915798;29;19934;-61
2021/09/21 00:54:11;;;;;;;;;;;8.20;93.10;;;;;;4916747;29;19915;-61
2021/09/21 00:56:37;;;;;;;;;;;8.30;93.10;;;;;;4916340;29;19919;-61
2021/09/21 00:59:02;;;;;;;;;;;8.40;93.10;;;;;;4919559;29;19955;-62
2021/09/21 01:01:28;;;;;;;;;;;8.50;93.00;;;;;;4914765;29;19947;-61
2021/09/21 01:03:53;;;;;;;;;;;8.50;93.20;;;;;;4916294;29;20398;-62
2021/09/21 01:06:19;;;;;;;;;;;8.60;93.20;;;;;;4914427;29;19974;-61
2021/09/21 01:08:45;;;;;;;;;;;8.60;93.20;;;;;;4915946;29;20085;-61
2021/09/21 01:11:11;;;;;;;;;;;8.70;93.10;;;;;;4915736;29;19919;-62
2021/09/21 01:13:37;;;;;;;;;;;8.70;93.20;;;;;;4899063;29;19923;-61
2021/09/21 01:16:02;;;;;;;;;;;8.80;93.30;;;;;;4915262;29;20380;-62
2021/09/21 01:18:28;;;;;;;;;;;8.80;93.30;;;;;;4915859;29;19919;-62
2021/09/21 01:21:00;;;;;;;;;;;8.90;93.10;;;;;;4916226;29;19983;-61
2021/09/21 01:23:26;;;;;;;;;;;8.90;93.30;;;;;;4915651;29;19920;-61
2021/09/21 01:25:54;;;;;;;;;;;9.00;93.30;;;;;;4915411;29;19926;-62
2021/09/21 01:28:20;;;;;;;;;;;9.00;93.40;;;;;;4916113;29;20006;-64
2021/09/21 01:30:45;;;;;;;;;;;9.10;93.40;;;;;;4915813;29;20006;-62
2021/09/21 01:33:11;;;;;;;;;;;9.10;93.20;;;;;;4915488;29;20015;-61
2021/09/21 01:35:36;;;;;;;;;;;9.10;93.40;;;;;;4915215;29;19919;-62
2021/09/21 01:38:02;;;;;;;;;;;9.10;93.40;;;;;;4915561;29;19919;-62
2021/09/21 01:40:28;;;;;;;;;;;9.20;93.40;;;;;;4915399;29;19926;-62
2021/09/21 01:42:53;;;;;;;;;;;9.20;93.30;;;;;;4915208;29;19926;-62
2021/09/21 01:45:19;;;;;;;;;;;9.20;93.50;;;;;;4914599;29;19929;-61
2021/09/21 01:47:45;;;;;;;;;;;9.30;93.50;;;;;;4915853;29;19923;-62
2021/09/21 01:52:51;;;;;;;;;;;9.30;93.30;;;;;;4913582;29;19919;-61
2021/09/21 02:00:32;;;;;;;;;;;9.40;93.60;;;;;;4934085;29;19946;-63
2021/09/21 02:02:57;;;;;;;;;;;9.40;93.40;;;;;;4934171;29;19962;-63
2021/09/21 02:05:23;;;;;;;;;;;9.50;93.60;;;;;;4933788;29;19950;-62
2021/09/21 02:07:48;;;;;;;;;;;9.50;93.60;;;;;;4934038;29;20400;-63
2021/09/21 02:10:14;;;;;;;;;;;9.50;93.60;;;;;;4934751;29;19926;-62
2021/09/21 02:12:40;;;;;;;;;;;9.60;93.40;;;;;;4933586;29;19989;-61
2021/09/21 02:15:06;;;;;;;;;;;9.60;93.60;;;;;;4934146;29;19919;-61
2021/09/21 02:17:31;;;;;;;;;;;9.60;93.60;;;;;;4933585;29;20495;-62
2021/09/21 02:19:57;;;;;;;;;;;9.60;93.60;;;;;;4934461;29;20031;-61
2021/09/21 02:22:22;;;;;;;;;;;9.60;93.40;;;;;;4933967;29;19927;-61
2021/09/21 02:24:48;;;;;;;;;;;9.60;93.60;;;;;;4934195;29;19919;-62
2021/09/21 02:27:14;;;;;;;;;;;9.60;93.60;;;;;;4932587;29;19922;-61
2021/09/21 02:29:39;;;;;;;;;;;9.70;93.60;;;;;;4935651;29;20408;-63
2021/09/21 02:32:05;;;;;;;;;;;9.60;93.60;;;;;;4937622;29;19919;-62
2021/09/21 02:34:31;;;;;;;;;;;9.70;93.60;;;;;;4934424;29;19922;-61
2021/09/21 02:36:56;;;;;;;;;;;11.10;94.00;;;;;;4934506;29;20392;-62
2021/09/21 02:39:22;;;;;;;;;;;9.70;93.60;;;;;;4935227;29;19927;-62
2021/09/21 02:41:47;;;;;;;;;;;9.70;93.50;;;;;;4917652;29;20015;-63
2021/09/21 02:44:13;;;;;;;;;;;9.60;93.60;;;;;;4917925;29;20409;-61
2021/09/21 02:46:38;;;;;;;;;;;9.70;93.70;;;;;;4916628;29;19927;-62
2021/09/21 02:49:04;;;;;;;;;;;9.70;93.70;;;;;;4931711;29;19925;-61
2021/09/21 02:51:29;;;;;;;;;;;9.70;93.50;;;;;;4936768;29;20002;-62
2021/09/21 02:53:55;;;;;;;;;;;9.70;93.70;;;;;;4936141;29;19961;-63
2021/09/21 02:56:20;;;;;;;;;;;9.70;93.80;;;;;;4935021;29;20287;-62
2021/09/21 02:58:46;;;;;;;;;;;9.70;93.80;;;;;;4937302;29;20431;-61
2021/09/21 03:01:12;;;;;;;;;;;9.80;93.80;;;;;;4935485;29;20010;-61
2021/09/21 03:03:47;;;;;;;;;;;9.80;93.80;;;;;;4936410;29;19925;-62
2021/09/21 03:06:23;;;;;;;;;;;9.80;93.80;;;;;;4935342;29;19953;-61
2021/09/21 03:08:49;;;;;;;;;;;9.80;93.80;;;;;;4920537;29;19919;-61
2021/09/21 03:11:19;;;;;;;;;;;9.80;93.80;;;;;;4935466;29;19989;-61
2021/09/21 03:19:13;;;;;;;;;;;9.80;93.80;;;;;;4936067;29;19923;-62
2021/09/21 03:21:38;;;;;;;;;;;9.90;93.80;;;;;;4936499;29;19929;-63
2021/09/21 03:24:04;;;;;;;;;;;9.90;93.80;;;;;;4936031;29;19919;-61
2021/09/21 03:26:30;;;;;;;;;;;9.90;93.80;;;;;;4936366;29;19922;-62
2021/09/21 03:28:55;;;;;;;;;;;9.90;93.80;;;;;;4936564;29;20013;-62
2021/09/21 03:31:21;;;;;;;;;;;9.90;93.80;;;;;;4936057;29;19919;-63
2021/09/21 03:33:46;;;;;;;;;;;9.90;93.80;;;;;;4937229;29;19926;-61
2021/09/21 03:36:12;;;;;;;;;;;10.00;93.80;;;;;;4935865;29;19942;-62
2021/09/21 03:38:38;;;;;;;;;;;10.00;93.80;;;;;;4937100;29;20323;-61
2021/09/21 03:41:03;;;;;;;;;;;10.00;93.80;;;;;;4936360;29;20548;-61
2021/09/21 03:43:29;;;;;;;;;;;10.00;93.80;;;;;;4936491;29;19946;-61
2021/09/21 03:45:54;;;;;;;;;;;10.00;93.90;;;;;;4903198;29;20021;-62
2021/09/21 03:48:20;;;;;;;;;;;10.00;93.90;;;;;;4919500;29;19962;-62
2021/09/21 03:50:45;;;;;;;;;;;10.00;93.90;;;;;;4936813;29;19919;-62
2021/09/21 03:53:11;;;;;;;;;;;10.00;93.90;;;;;;4935854;29;19919;-62
2021/09/21 03:55:36;;;;;;;;;;;10.10;93.90;;;;;;4936138;29;19918;-63
2021/09/21 03:58:02;;;;;;;;;;;10.10;93.90;;;;;;4936025;29;19965;-61
2021/09/21 04:00:27;;;;;;;;;;;10.10;93.90;;;;;;4936757;29;19950;-61
2021/09/21 04:02:53;;;;;;;;;;;10.10;93.90;;;;;;4935942;29;20543;-61
2021/09/21 04:05:19;;;;;;;;;;;10.10;93.90;;;;;;4935382;29;19919;-62
2021/09/21 04:07:48;;;;;;;;;;;10.10;93.90;;;;;;4936371;29;19929;-61
2021/09/21 04:10:14;;;;;;;;;;;10.10;93.90;;;;;;4934853;29;20013;-61
2021/09/21 04:12:40;;;;;;;;;;;10.10;93.70;;;;;;4935681;29;19998;-61
2021/09/21 04:15:05;;;;;;;;;;;10.10;93.90;;;;;;4918210;29;19965;-62
2021/09/21 04:17:31;;;;;;;;;;;10.10;93.90;;;;;;4934369;29;19918;-62
2021/09/21 04:19:56;;;;;;;;;;;10.10;93.90;;;;;;4936082;28;19918;-61
2021/09/21 04:22:22;;;;;;;;;;;10.10;93.90;;;;;;4935211;29;19919;-61
2021/09/21 04:24:48;;;;;;;;;;;10.10;93.90;;;;;;4935380;29;19995;-61
2021/09/21 04:27:13;;;;;;;;;;;10.20;93.90;;;;;;4935604;29;19923;-62
2021/09/21 04:29:39;;;;;;;;;;;10.20;93.90;;;;;;4936035;29;19989;-61
2021/09/21 04:32:05;;;;;;;;;;;10.20;93.90;;;;;;4935273;29;20320;-62
2021/09/21 04:34:31;;;;;;;;;;;10.20;93.90;;;;;;4934171;29;20005;-62
2021/09/21 04:36:57;;;;;;;;;;;10.20;93.90;;;;;;4935521;29;19926;-62
2021/09/21 04:39:23;;;;;;;;;;;10.20;93.90;;;;;;4935968;29;19919;-61
2021/09/21 04:41:49;;;;;;;;;;;10.20;93.90;;;;;;4934447;29;19930;-61
2021/09/21 04:44:14;;;;;;;;;;;10.20;93.90;;;;;;4935221;29;19919;-62
2021/09/21 04:46:40;;;;;;;;;;;10.20;93.90;;;;;;4933984;29;20021;-62
2021/09/21 04:49:07;;;;;;;;;;;10.20;94.00;;;;;;4935393;29;20379;-62
2021/09/21 04:51:33;;;;;;;;;;;10.20;94.00;;;;;;4933372;29;19918;-63
2021/09/21 04:53:59;;;;;;;;;;;10.30;94.00;;;;;;4934192;29;20379;-63
2021/09/21 04:56:24;;;;;;;;;;;10.30;94.00;;;;;;4933756;29;19926;-62
2021/09/21 04:58:50;;;;;;;;;;;10.30;94.00;;;;;;4935118;29;19998;-62
2021/09/21 05:01:15;;;;;;;;;;;10.30;94.00;;;;;;4934466;29;19919;-63
2021/09/21 05:03:41;;;;;;;;;;;10.30;94.00;;;;;;4933449;29;19999;-62
2021/09/21 05:06:06;;;;;;;;;;;10.30;94.00;;;;;;4933012;29;19927;-61
2021/09/21 05:08:32;;;;;;;;;;;10.30;94.00;;;;;;4934512;29;19946;-62
2021/09/21 05:10:57;;;;;;;;;;;10.30;94.00;;;;;;4934472;29;19919;-62
2021/09/21 05:13:23;;;;;;;;;;;10.40;94.30;;;;;;4934815;29;19923;-62
2021/09/21 05:15:49;;;;;;;;;;;10.40;94.10;;;;;;4934159;29;20347;-63
2021/09/21 05:18:15;;;;;;;;;;;10.40;94.10;;;;;;4935286;29;20002;-63
2021/09/21 05:20:40;;;;;;;;;;;10.40;94.10;;;;;;4934843;29;19997;-62
2021/09/21 05:23:06;;;;;;;;;;;10.40;94.10;;;;;;4934766;29;20010;-61
2021/09/21 05:25:31;;;;;;;;;;;10.40;94.10;;;;;;4934390;29;19926;-62
2021/09/21 05:27:57;;;;;;;;;;;10.50;94.10;;;;;;4934543;29;19930;-62
2021/09/21 05:30:22;;;;;;;;;;;10.50;94.10;;;;;;4935016;29;19954;-62
2021/09/21 05:32:48;;;;;;;;;;;10.50;94.10;;;;;;4934579;29;19919;-62
2021/09/21 05:35:14;;;;;;;;;;;10.60;94.20;;;;;;4934445;29;20280;-62
2021/09/21 05:37:39;;;;;;;;;;;10.60;94.10;;;;;;4933172;29;19942;-62
2021/09/21 05:40:05;;;;;;;;;;;10.60;94.20;;;;;;4934973;29;19919;-63
2021/09/21 05:42:31;;;;;;;;;;;10.60;94.20;;;;;;4933855;29;19919;-62
2021/09/21 05:44:56;;;;;;;;;;;10.60;94.20;;;;;;4932374;29;19918;-62
2021/09/21 05:47:22;;;;;;;;;;;10.70;94.20;;;;;;4934498;29;19930;-63
2021/09/21 05:49:47;;;;;;;;;;;11.00;94.30;;;;;;4933353;29;20018;-61
2021/09/21 05:52:13;;;;;;;;;;;10.70;94.50;;;;;;4934592;29;20288;-63
2021/09/21 05:54:39;;;;;;;;;;;10.80;94.30;;;;;;4933578;29;20022;-62
2021/09/21 05:57:07;;;;;;;;;;;10.90;94.30;;;;;;4934776;29;19926;-62
2021/09/21 05:59:32;;;;;;;;;;;10.90;94.30;;;;;;4917451;29;20295;-63
2021/09/21 06:01:58;;;;;;;;;;;10.90;94.30;;;;;;4933977;29;19971;-62
2021/09/21 06:04:23;;;;;;;;;;;11.00;94.30;;;;;;4932869;29;19973;-63
2021/09/21 06:06:49;;;;;;;;;;;11.10;94.30;;;;;;4934416;29;19927;-62
2021/09/21 06:09:14;;;;;;;;;;;11.20;94.30;;;;;;4932810;29;19919;-64
2021/09/21 06:11:40;;;;;;;;;;;11.20;94.30;;;;;;4933815;29;19923;-61
2021/09/21 06:14:05;;;;;;;;;;;11.20;94.30;;;;;;4934143;29;19919;-63
2021/09/21 06:16:31;;;;;;;;;;;11.30;94.30;;;;;;4933899;29;19918;-62
2021/09/21 06:18:57;;;;;;;;;;;11.30;94.30;;;;;;4934682;29;19974;-62
2021/09/21 06:21:23;;;;;;;;;;;11.30;94.20;;;;;;4933552;29;19919;-63
2021/09/21 06:23:48;;;;;;;;;;;11.40;94.20;;;;;;4934465;29;19926;-62
2021/09/21 06:26:14;;;;;;;;;;;11.40;94.30;;;;;;4933590;29;19927;-64
2021/09/21 06:28:40;;;;;;;;;;;11.50;94.50;;;;;;4934475;29;19926;-61
2021/09/21 06:31:05;;;;;;;;;;;11.70;94.70;;;;;;4933847;29;19982;-62
2021/09/21 06:33:31;;;;;;;;;;;11.90;94.80;;;;;;4934693;29;19961;-63
2021/09/21 06:35:56;;;;;;;;;;;12.20;95.30;;;;;;4932531;29;19922;-62
2021/09/21 06:38:22;;;;;;;;;;;12.40;95.10;;;;;;4933955;29;19928;-63
2021/09/21 06:40:47;;;;;;;;;;;12.70;94.90;;;;;;4933145;29;20414;-62
2021/09/21 06:43:13;;;;;;;;;;;12.90;94.80;;;;;;4933498;29;20371;-62
2021/09/21 06:45:39;;;;;;;;;;;13.10;94.50;;;;;;4933595;29;19923;-62
2021/09/21 06:48:04;;;;;;;;;;;13.20;94.10;;;;;;4933819;29;20395;-63
2021/09/21 06:50:30;;;;;;;;;;;13.20;93.70;;;;;;4917487;29;19919;-63
2021/09/21 06:52:56;;;;;;;;;;;13.20;93.50;;;;;;4932994;29;20458;-63
2021/09/21 06:55:21;;;;;;;;;;;13.20;93.50;;;;;;4932948;29;20033;-62
2021/09/21 06:57:51;;;;;;;;;;;13.20;93.10;;;;;;4936430;29;20392;-62
2021/09/21 07:00:17;;;;;;;;;;;13.10;92.80;;;;;;4936846;29;20295;-62
2021/09/21 07:02:46;;;;;;;;;;;13.00;92.40;;;;;;4932794;29;20005;-62
2021/09/21 07:05:14;;;;;;;;;;;12.80;92.40;;;;;;4932538;29;19927;-62
2021/09/21 07:07:44;;;;;;;;;;;12.70;92.30;;;;;;4932781;29;19930;-61
2021/09/21 07:10:10;;;;;;;;;;;12.60;92.20;;;;;;4933772;29;20340;-62
2021/09/21 07:12:36;;;;;;;;;;;12.60;92.40;;;;;;4933452;29;19984;-61
2021/09/21 07:15:01;;;;;;;;;;;12.50;92.40;;;;;;4934581;29;20268;-62
2021/09/21 07:17:27;;;;;;;;;;;12.50;92.50;;;;;;4937526;29;19966;-61
2021/09/21 07:19:52;;;;;;;;;;;12.40;92.40;;;;;;4935483;29;20006;-62
2021/09/21 07:22:18;;;;;;;;;;;12.40;92.30;;;;;;4936053;29;20530;-62
2021/09/21 07:24:44;;;;;;;;;;;12.40;92.30;;;;;;4934252;29;19923;-61
2021/09/21 07:27:09;;;;;;;;;;;12.50;92.40;;;;;;4934997;29;19933;-62
2021/09/21 07:29:35;;;;;;;;;;;12.50;92.50;;;;;;4936889;29;19934;-62
2021/09/21 07:32:00;;;;;;;;;;;12.60;92.50;;;;;;4934157;28;19950;-61
2021/09/21 07:34:26;;;;;;;;;;;12.60;92.40;;;;;;4935036;29;19925;-62
2021/09/21 07:36:52;;;;;;;;;;;12.70;92.40;;;;;;4936543;29;19919;-62
2021/09/21 07:39:19;;;;;;;;;;;12.70;92.30;;;;;;4937127;29;20291;-61
2021/09/21 07:41:45;;;;;;;;;;;12.80;92.40;;;;;;4936195;29;20395;-63
2021/09/21 07:44:10;;;;;;;;;;;12.90;92.50;;;;;;4936958;29;19943;-62
2021/09/21 07:46:36;;;;;;;;;;;13.00;92.40;;;;;;4935652;29;19929;-64
2021/09/21 07:49:02;;;;;;;;;;;13.10;92.40;;;;;;4936967;29;19919;-62
2021/09/21 07:51:27;;;;;;;;;;;13.20;92.30;;;;;;4936163;29;19922;-61
2021/09/21 07:53:53;;;;;;;;;;;13.30;92.40;;;;;;4931001;29;19926;-62
2021/09/21 07:56:19;;;;;;;;;;;13.40;92.30;;;;;;4923343;29;19930;-62
2021/09/21 07:58:44;;;;;;;;;;;13.50;92.00;;;;;;4922898;29;19923;-63
2021/09/21 08:01:10;;;;;;;;;;;13.40;91.80;;;;;;4936439;29;19919;-62
2021/09/21 08:03:36;;;;;;;;;;;13.40;91.60;;;;;;4918716;29;20005;-61
2021/09/21 08:06:02;;;;;;;;;;;13.30;91.60;;;;;;4935835;29;20299;-62
2021/09/21 08:08:28;;;;;;;;;;;13.30;91.70;;;;;;4936006;29;19925;-62
2021/09/21 08:10:53;;;;;;;;;;;13.30;91.90;;;;;;4936427;29;19926;-62
2021/09/21 08:13:19;;;;;;;;;;;13.50;92.00;;;;;;4920182;29;19923;-66
2021/09/21 08:15:45;;;;;;;;;;;13.60;91.90;;;;;;4916150;29;19926;-65
2021/09/21 08:18:11;;;;;;;;;;;13.60;91.70;;;;;;4917386;29;19919;-62
2021/09/21 08:20:37;;;;;;;;;;;13.60;91.40;;;;;;4916867;29;19961;-63
2021/09/21 08:23:02;;;;;;;;;;;13.60;91.30;;;;;;4917206;29;20463;-63
2021/09/21 08:25:28;;;;;;;;;;;13.60;91.20;;;;;;4916033;29;19925;-63
2021/09/21 08:27:55;;;;;;;;;;;13.50;91.10;;;;;;4916888;29;19971;-63
2021/09/21 08:30:20;;;;;;;;;;;13.40;91.20;;;;;;4916754;29;19939;-63
2021/09/21 08:32:46;;;;;;;;;;;13.40;91.20;;;;;;4927370;29;19919;-62
2021/09/21 08:35:12;;;;;;;;;;;13.40;91.20;;;;;;4935170;29;20415;-63
2021/09/21 08:37:38;;;;;;;;;;;13.50;91.20;;;;;;4935884;29;19956;-62
2021/09/21 08:40:05;;;;;;;;;;;13.50;91.30;;;;;;4934000;29;19969;-62
2021/09/21 08:42:30;;;;;;;;;;;13.60;91.20;;;;;;4934110;29;19946;-62
2021/09/21 08:44:56;;;;;;;;;;;13.60;91.10;;;;;;4934810;29;20026;-62
2021/09/21 08:47:22;;;;;;;;;;;13.60;90.90;;;;;;4934697;29;19949;-63
2021/09/21 08:49:48;;;;;;;;;;;13.60;90.80;;;;;;4934926;29;19978;-62
2021/09/21 08:52:13;;;;;;;;;;;13.60;90.70;;;;;;4933481;29;20549;-62
2021/09/21 08:54:39;;;;;;;;;;;13.60;90.90;;;;;;4934769;29;19923;-62
2021/09/21 08:57:05;;;;;;;;;;;13.60;91.00;;;;;;4934513;29;19919;-63
2021/09/21 08:59:31;;;;;;;;;;;13.70;91.00;;;;;;4920589;29;20006;-62
2021/09/21 09:02:03;;;;;;;;;;;13.80;91.00;;;;;;4916328;29;19942;-62
2021/09/21 09:04:30;;;;;;;;;;;13.90;91.10;;;;;;4915197;29;19997;-62
2021/09/21 09:06:56;;;;;;;;;;;13.90;90.70;;;;;;4930183;29;19923;-62
2021/09/21 09:09:25;;;;;;;;;;;13.90;90.60;;;;;;4915258;29;19923;-62
2021/09/21 09:11:55;;;;;;;;;;;13.80;90.30;;;;;;4915688;29;19923;-63
2021/09/21 09:14:25;;;;;;;;;;;13.80;90.20;;;;;;4914357;29;20384;-62
2021/09/21 09:16:58;;;;;;;;;;;13.70;90.20;;;;;;4915037;29;20364;-62
2021/09/21 09:19:31;;;;;;;;;;;13.70;90.20;;;;;;4913938;29;19982;-62
2021/09/21 09:22:03;;;;;;;;;;;13.60;90.10;;;;;;4914973;29;19976;-61
2021/09/21 09:24:28;;;;;;;;;;;13.50;90.10;;;;;;4913927;29;19927;-62
2021/09/21 09:26:54;;;;;;;;;;;13.60;90.10;;;;;;4914781;29;19919;-61
2021/09/21 09:29:21;;;;;;;;;;;13.60;90.20;;;;;;4913640;29;20361;-63
2021/09/21 09:31:47;;;;;;;;;;;13.70;90.30;;;;;;4919698;29;20015;-63
2021/09/21 09:34:18;;;;;;;;;;;13.70;90.10;;;;;;4932975;29;19965;-63
2021/09/21 09:36:45;;;;;;;;;;;13.80;90.10;;;;;;4933362;29;19926;-62
2021/09/21 09:39:11;;;;;;;;;;;13.90;90.10;;;;;;4932875;29;20017;-62
2021/09/21 09:41:38;;;;;;;;;;;14.10;90.10;;;;;;4933079;29;19969;-61
2021/09/21 09:44:08;;;;;;;;;;;14.30;90.30;;;;;;4932223;29;19925;-62
2021/09/21 09:46:41;;;;;;;;;;;14.40;90.10;;;;;;4931581;29;19923;-62
2021/09/21 09:49:07;;;;;;;;;;;14.70;90.00;;;;;;4932939;29;19919;-62
2021/09/21 09:51:42;;;;;;;;;;;14.90;89.60;;;;;;4933044;29;20005;-61
2021/09/21 09:54:07;;;;;;;;;;;15.10;88.70;;;;;;4923590;29;20455;-63
2021/09/21 09:56:33;;;;;;;;;;;15.20;87.90;;;;;;4921815;29;19926;-61
2021/09/21 09:58:59;;;;;;;;;;;15.30;87.70;;;;;;4929598;29;20434;-62
2021/09/21 10:01:25;;;;;;;;;;;15.40;86.80;;;;;;4932862;29;19923;-61
2021/09/21 10:03:51;;;;;;;;;;;15.50;85.90;;;;;;4916593;29;20376;-61
2021/09/21 10:06:17;;;;;;;;;;;15.50;85.80;;;;;;4932163;29;19985;-64
2021/09/21 10:08:42;;;;;;;;;;;15.70;85.70;;;;;;4932977;29;19958;-61
2021/09/21 10:11:08;;;;;;;;;;;15.80;84.60;;;;;;4873682;29;1741591;-63
2021/09/21 10:13:33;;;;;;;;;;;15.90;83.60;;;;;;4928883;29;19998;-63
2021/09/21 10:15:59;;;;;;;;;;;15.50;83.70;;;;;;4930241;29;19930;-64
2021/09/21 10:18:26;;;;;;;;;;;16.10;84.10;;;;;;4928268;29;19919;-63
2021/09/21 10:20:59;;;;;;;;;;;16.20;83.30;;;;;;4928756;29;19983;-65
2021/09/21 10:23:36;;;;;;;;;;;16.40;82.70;;;;;;4926741;29;19929;-64
2021/09/21 10:26:15;;;;;;;;;;;16.50;82.00;;;;;;4933106;29;19918;-65
2021/09/21 10:28:42;;;;;;;;;;;16.60;81.80;;;;;;4933224;29;20014;-65
2021/09/21 10:31:11;;;;;;;;;;;16.70;81.60;;;;;;4933537;29;20288;-65
2021/09/21 10:33:37;;;;;;;;;;;16.70;80.80;;;;;;4933502;29;19919;-65
2021/09/21 10:36:03;;;;;;;;;;;16.70;80.10;;;;;;4933222;29;19989;-64
2021/09/21 10:38:28;;;;;;;;;;;16.60;79.50;;;;;;4933005;29;19919;-65
2021/09/21 10:41:01;;;;;;;;;;;16.60;79.40;;;;;;4933831;29;19970;-64
2021/09/21 10:43:28;;;;;;;;;;;16.60;79.30;;;;;;4933376;29;19919;-63
2021/09/21 10:46:14;;;;;;;;;;;16.50;78.70;;;;;;4933142;29;19919;-64
2021/09/21 10:48:40;;;;;;;;;;;16.40;78.50;;;;;;4923605;29;20370;-63
2021/09/21 10:51:07;;;;;;;;;;;16.40;79.00;;;;;;4920221;29;19923;-63
2021/09/21 10:53:33;;;;;;;;;;;16.50;78.90;;;;;;4937014;29;19946;-63
2021/09/21 10:56:04;;;;;;;;;;;16.50;78.50;;;;;;4936784;29;19959;-65
2021/09/21 10:58:29;;;;;;;;;;;16.60;78.10;;;;;;4936595;29;19929;-64
2021/09/21 11:00:56;;;;;;;;;;;16.50;78.10;;;;;;4937064;29;20364;-65
2021/09/21 11:03:22;;;;;;;;;;;16.50;77.50;;;;;;4937186;29;20295;-65
2021/09/21 11:05:48;;;;;;;;;;;16.50;77.40;;;;;;4936001;29;19926;-65
2021/09/21 11:08:14;;;;;;;;;;;16.40;77.60;;;;;;4936803;29;19919;-64
2021/09/21 11:10:43;;;;;;;;;;;16.50;77.80;;;;;;4936482;29;19962;-64
2021/09/21 11:13:10;;;;;;;;;;;16.50;77.40;;;;;;4936972;29;19978;-64
2021/09/21 11:15:36;;;;;;;;;;;16.50;77.40;;;;;;4935864;29;19918;-65
2021/09/21 11:18:06;;;;;;;;;;;16.40;77.00;;;;;;4931895;29;19919;-63
2021/09/21 11:20:32;;;;;;;;;;;16.30;76.70;;;;;;4931612;28;19926;-64
2021/09/21 11:23:02;;;;;;;;;;;16.20;76.60;;;;;;4931228;29;19919;-63
2021/09/21 11:25:29;;;;;;;;;;;16.10;76.80;;;;;;4916744;29;19946;-64
2021/09/21 11:27:56;;;;;;;;;;;16.00;76.90;;;;;;4932178;29;19923;-65
2021/09/21 11:30:21;;;;;;;;;;;15.90;76.60;;;;;;4916876;29;19930;-64
2021/09/21 11:32:47;;;;;;;;;;;15.80;76.90;;;;;;4917744;29;20368;-63
2021/09/21 11:35:15;;;;;;;;;;;15.70;77.20;;;;;;4931118;29;20372;-63
2021/09/21 11:37:41;;;;;;;;;;;15.60;77.40;;;;;;4917767;29;19919;-63
2021/09/21 11:40:08;;;;;;;;;;;15.60;77.70;;;;;;4917481;29;20365;-64
2021/09/21 11:42:35;;;;;;;;;;;15.50;77.70;;;;;;4917127;29;19926;-63
2021/09/21 11:45:03;;;;;;;;;;;15.50;78.00;;;;;;4916828;29;19919;-64
2021/09/21 11:47:38;;;;;;;;;;;15.60;78.40;;;;;;4917079;29;20419;-64
2021/09/21 11:50:12;;;;;;;;;;;15.60;78.40;;;;;;4924298;29;20390;-63
2021/09/21 11:52:37;;;;;;;;;;;15.70;78.40;;;;;;4935067;29;19919;-63
2021/09/21 11:55:08;;;;;;;;;;;15.70;78.20;;;;;;4935569;29;19919;-64
2021/09/21 11:57:38;;;;;;;;;;;15.70;78.30;;;;;;4935790;29;19950;-63
2021/09/21 12:00:05;;;;;;;;;;;15.70;78.50;;;;;;4935424;29;19919;-64
2021/09/21 12:02:33;;;;;;;;;;;15.80;78.60;;;;;;4935522;29;19923;-65
2021/09/21 12:05:00;;;;;;;;;;;15.80;78.60;;;;;;4935288;29;19927;-64
2021/09/21 12:07:26;;;;;;;;;;;15.90;79.00;;;;;;4935541;29;19927;-64
2021/09/21 12:09:52;;;;;;;;;;;16.10;78.60;;;;;;4918463;29;19930;-64
2021/09/21 12:12:24;;;;;;;;;;;16.20;78.60;;;;;;4935309;29;19977;-63
2021/09/21 12:14:57;;;;;;;;;;;16.20;78.50;;;;;;4935404;29;19926;-63
2021/09/21 12:17:23;;;;;;;;;;;16.10;78.20;;;;;;4918464;29;19927;-64
2021/09/21 12:19:48;;;;;;;;;;;16.20;78.20;;;;;;4935428;29;19926;-64
2021/09/21 12:22:18;;;;;;;;;;;16.20;78.40;;;;;;4934802;29;20388;-63
2021/09/21 12:24:44;;;;;;;;;;;16.20;78.30;;;;;;4933851;29;19966;-63
2021/09/21 12:27:10;;;;;;;;;;;16.30;78.50;;;;;;4935527;29;19926;-64
2021/09/21 12:29:35;;;;;;;;;;;16.40;78.20;;;;;;4933486;29;19926;-65
2021/09/21 12:32:01;;;;;;;;;;;16.50;78.40;;;;;;4935412;29;19922;-63
2021/09/21 12:34:33;;;;;;;;;;;16.60;78.40;;;;;;4934623;29;20287;-64
2021/09/21 12:37:00;;;;;;;;;;;16.70;77.80;;;;;;4935458;29;19919;-65
2021/09/21 12:39:27;;;;;;;;;;;16.60;77.30;;;;;;4934663;29;19926;-64
2021/09/21 12:41:53;;;;;;;;;;;16.50;77.60;;;;;;4924233;29;20007;-64
2021/09/21 12:44:21;;;;;;;;;;;16.50;77.60;;;;;;4925046;29;19925;-63
2021/09/21 12:46:48;;;;;;;;;;;16.50;77.90;;;;;;4917033;29;19923;-65
2021/09/21 12:49:15;;;;;;;;;;;16.50;78.00;;;;;;4925471;29;20035;-64
2021/09/21 12:51:43;;;;;;;;;;;16.60;78.10;;;;;;4925394;29;19919;-65
2021/09/21 12:54:12;;;;;;;;;;;16.60;77.80;;;;;;4924095;29;19927;-63
2021/09/21 12:56:39;;;;;;;;;;;16.60;77.80;;;;;;4925335;29;19965;-63
2021/09/21 12:59:06;;;;;;;;;;;16.50;77.70;;;;;;4925483;29;20018;-63
2021/09/21 13:01:32;;;;;;;;;;;16.60;78.10;;;;;;4924846;29;19954;-65
2021/09/21 13:03:58;;;;;;;;;;;16.80;78.80;;;;;;4926234;29;20410;-64
2021/09/21 13:06:23;;;;;;;;;;;17.10;79.00;;;;;;4924489;29;19923;-64
2021/09/21 13:08:49;;;;;;;;;;;17.40;78.90;;;;;;4923545;29;19927;-65
2021/09/21 13:11:15;;;;;;;;;;;17.60;78.60;;;;;;4925769;29;20001;-63
2021/09/21 13:13:41;;;;;;;;;;;17.90;78.20;;;;;;4934557;29;20335;-64
2021/09/21 13:16:07;;;;;;;;;;;18.00;77.50;;;;;;4933697;29;20005;-65
2021/09/21 13:18:33;;;;;;;;;;;18.10;76.90;;;;;;4934543;29;20579;-63
2021/09/21 13:20:58;;;;;;;;;;;18.20;76.60;;;;;;4935150;29;19915;-63
2021/09/21 13:23:24;;;;;;;;;;;18.20;75.90;;;;;;4916842;29;20045;-64
2021/09/21 13:25:50;;;;;;;;;;;18.20;76.00;;;;;;4934089;29;19930;-64
2021/09/21 13:28:15;;;;;;;;;;;18.30;76.20;;;;;;4933794;29;19923;-64
2021/09/21 13:30:43;;;;;;;;;;;18.40;75.40;;;;;;4915973;29;19926;-63
2021/09/21 13:33:09;;;;;;;;;;;18.40;75.00;;;;;;4913485;29;19919;-61
2021/09/21 13:35:35;;;;;;;;;;;18.30;74.50;;;;;;4914888;29;19926;-61
2021/09/21 13:38:01;;;;;;;;;;;18.20;74.80;;;;;;4925793;29;19919;-63
2021/09/21 13:40:26;;;;;;;;;;;18.10;75.30;;;;;;4933949;29;20349;-63
2021/09/21 13:42:54;;;;;;;;;;;18.10;75.10;;;;;;4932738;29;19942;-61
2021/09/21 13:45:22;;;;;;;;;;;18.10;75.10;;;;;;4933882;29;19923;-63
2021/09/21 13:47:48;;;;;;;;;;;18.00;74.90;;;;;;4934091;29;19954;-63
2021/09/21 13:50:14;;;;;;;;;;;18.00;75.00;;;;;;4933663;29;19957;-62
2021/09/21 13:52:41;;;;;;;;;;;17.90;74.30;;;;;;4931035;29;19928;-61
2021/09/21 13:55:07;;;;;;;;;;;17.90;75.20;;;;;;4925123;29;20356;-62
2021/09/21 13:57:32;;;;;;;;;;;17.90;75.10;;;;;;4924919;29;20340;-61
2021/09/21 13:59:58;;;;;;;;;;;17.80;75.00;;;;;;4924639;29;19919;-62
2021/09/21 14:02:24;;;;;;;;;;;17.80;75.40;;;;;;4925987;29;19929;-63
2021/09/21 14:04:49;;;;;;;;;;;17.80;75.50;;;;;;4932742;29;19945;-63
2021/09/21 14:07:15;;;;;;;;;;;17.80;75.70;;;;;;4932345;29;19930;-61
2021/09/21 14:09:41;;;;;;;;;;;17.70;75.40;;;;;;4933455;29;20290;-62
2021/09/21 14:12:07;;;;;;;;;;;17.60;75.60;;;;;;4932506;29;20021;-63
2021/09/21 14:14:32;;;;;;;;;;;17.40;75.40;;;;;;4932825;29;19963;-61
2021/09/21 14:16:58;;;;;;;;;;;17.30;75.60;;;;;;4933134;29;20018;-61
2021/09/21 14:19:24;;;;;;;;;;;17.20;75.90;;;;;;4933687;29;19926;-63
2021/09/21 14:21:49;;;;;;;;;;;17.00;75.90;;;;;;4932508;29;20018;-62
2021/09/21 14:24:15;;;;;;;;;;;16.90;76.30;;;;;;4934185;29;19979;-61
2021/09/21 14:26:41;;;;;;;;;;;16.90;76.80;;;;;;4936618;29;19930;-62
2021/09/21 14:29:07;;;;;;;;;;;16.90;77.00;;;;;;4936887;29;19919;-63